Terminal Aerodrome Forecast
Issued by NWS Austin/San Antonio, TX

Home | Current Version | Previous Version | Text Only | Print | Product List | Glossary On
Versions: 1 2 3 4 5 6 7 8 9 10 11 12 13 14
000
FTUS44 KEWX 292341
TAFAUS
TAF
KAUS 292341Z 3000/3106 17015KT P6SM SKC
     FM300600 17010KT P6SM BKN009 OVC015
     FM300900 18005KT 4SM BR OVC006
     FM301600 18012KT P6SM OVC015
     FM301900 17008KT P6SM BKN030
     FM302100 19012KT P6SM SCT030 BKN250
     FM310500 18010KT P6SM SCT020 BKN250=

USA.gov is the U.S. government's official web portal to all federal, state and local government web resources and services.